createdAt,value
2022-10-05T00:00:00.315Z,84.13
2022-10-05T00:01:05.833Z,83.54
2022-10-05T00:02:24.760Z,84.08
2022-10-05T00:03:36.957Z,84.27
2022-10-05T00:04:38.577Z,84.78
2022-10-05T00:05:40.665Z,84.96
2022-10-05T00:06:44.760Z,85.40
2022-10-05T00:07:46.560Z,85.54
2022-10-05T00:08:48.317Z,85.26
2022-10-05T00:09:56.336Z,84.74
2022-10-05T00:10:57.887Z,84.88
2022-10-05T00:11:59.743Z,84.83
2022-10-05T00:13:01.311Z,84.73
2022-10-05T00:14:14.689Z,85.24
2022-10-05T00:15:20.686Z,84.19
2022-10-05T00:16:22.328Z,84.64
2022-10-05T00:17:27.303Z,83.64
2022-10-05T00:18:28.914Z,84.27
2022-10-05T00:19:38.652Z,83.98
2022-10-05T00:20:41.539Z,84.01
2022-10-05T00:21:43.061Z,84.10
2022-10-05T00:22:44.665Z,83.50
2022-10-05T00:23:46.760Z,83.21
2022-10-05T00:24:50.451Z,82.08
2022-10-05T00:25:52.114Z,81.33
2022-10-05T00:26:57.779Z,80.30
2022-10-05T00:28:01.332Z,80.03
2022-10-05T00:29:18.737Z,80.10
2022-10-05T00:30:21.653Z,78.98
2022-10-05T00:31:26.826Z,79.26
2022-10-05T00:32:28.377Z,78.52
2022-10-05T00:33:29.872Z,78.48
2022-10-05T00:34:34.142Z,77.43
2022-10-05T00:35:36.700Z,78.07
2022-10-05T00:36:39.665Z,77.92
2022-10-05T00:37:42.025Z,77.78
2022-10-05T00:38:44.916Z,77.74
2022-10-05T00:39:46.945Z,76.88
2022-10-05T00:41:10.467Z,76.63
2022-10-05T00:42:46.083Z,76.23
2022-10-05T00:44:10.579Z,75.63
2022-10-05T00:45:27.399Z,75.66
2022-10-05T00:46:43.686Z,74.24
2022-10-05T00:47:45.443Z,73.37
2022-10-05T00:48:53.022Z,73.94
2022-10-05T00:50:18.220Z,74.17
2022-10-05T00:51:28.507Z,74.77
2022-10-05T00:52:41.097Z,74.51
2022-10-05T00:53:43.387Z,74.08
2022-10-05T00:54:49.353Z,73.70
2022-10-05T00:56:07.607Z,73.03
2022-10-05T00:57:34.069Z,73.91
2022-10-05T00:58:44.719Z,73.95
2022-10-05T00:59:57.461Z,73.82
2022-10-05T01:01:17.909Z,73.81
2022-10-05T01:04:04.224Z,74.41
2022-10-05T01:05:11.862Z,74.22
2022-10-05T01:06:29.867Z,75.06
2022-10-05T01:07:46.213Z,74.44
2022-10-05T01:09:09.949Z,75.29
2022-10-05T01:10:35.537Z,76.34
2022-10-05T01:11:54.751Z,75.60
2022-10-05T01:13:34.690Z,75.67
2022-10-05T01:15:02.101Z,75.62
2022-10-05T01:16:21.102Z,75.45
2022-10-05T01:17:41.882Z,75.06
2022-10-05T01:19:35.846Z,75.39
2022-10-05T01:21:02.035Z,74.84
2022-10-05T01:22:15.393Z,74.45
2022-10-05T01:23:47.914Z,75.53
2022-10-05T01:25:05.394Z,74.34
2022-10-05T01:26:31.390Z,75.65
2022-10-05T01:27:45.429Z,75.23
2022-10-05T01:28:59.842Z,74.09
2022-10-05T01:30:07.265Z,74.31
2022-10-05T01:31:32.307Z,74.60
2022-10-05T01:32:41.742Z,74.63
2022-10-05T01:34:11.562Z,74.90
2022-10-05T01:35:16.058Z,74.18
2022-10-05T01:36:24.044Z,74.74
2022-10-05T01:37:34.461Z,75.32
2022-10-05T01:38:41.683Z,75.42
2022-10-05T01:39:58.322Z,75.90
2022-10-05T01:41:05.952Z,76.06
2022-10-05T01:42:21.271Z,76.16
2022-10-05T01:43:28.595Z,75.41
2022-10-05T01:44:40.230Z,74.99
2022-10-05T01:45:50.815Z,76.30
2022-10-05T01:47:18.425Z,75.55
2022-10-05T01:48:37.562Z,75.48
2022-10-05T01:50:02.945Z,75.07
2022-10-05T01:51:37.965Z,74.93
2022-10-05T01:53:00.563Z,73.96
2022-10-05T01:54:25.235Z,74.00
2022-10-05T01:55:51.321Z,74.20
2022-10-05T01:57:20.759Z,73.86
2022-10-05T01:58:48.279Z,74.56
2022-10-05T02:00:04.059Z,73.52
2022-10-05T02:01:33.616Z,74.33
2022-10-05T02:02:39.806Z,74.68
2022-10-05T02:04:04.864Z,74.64
2022-10-05T02:05:32.511Z,75.08
2022-10-05T02:06:41.366Z,74.95
2022-10-05T02:07:51.254Z,74.58
2022-10-05T02:09:00.918Z,75.00
2022-10-05T02:10:20.241Z,74.64
2022-10-05T02:11:21.908Z,74.30
2022-10-05T02:12:27.262Z,73.97
2022-10-05T02:13:44.180Z,73.74
2022-10-05T02:14:54.228Z,73.92
2022-10-05T02:16:07.279Z,74.25
2022-10-05T02:17:19.298Z,74.10
2022-10-05T02:18:30.524Z,73.92
2022-10-05T02:19:38.242Z,73.93
2022-10-05T02:20:42.392Z,74.53
2022-10-05T02:21:48.968Z,75.38
2022-10-05T02:22:54.320Z,75.58
2022-10-05T02:24:00.928Z,76.48
2022-10-05T02:25:12.758Z,76.39
2022-10-05T02:26:16.716Z,76.50
2022-10-05T02:27:26.009Z,76.17
2022-10-05T02:28:39.429Z,76.47
2022-10-05T02:29:45.608Z,76.77
2022-10-05T02:31:10.461Z,77.22
2022-10-05T02:32:24.040Z,77.25
2022-10-05T02:33:31.168Z,76.68
2022-10-05T02:34:41.700Z,75.86
2022-10-05T02:35:43.269Z,76.22
2022-10-05T02:36:46.211Z,76.08
2022-10-05T02:38:06.258Z,76.34
2022-10-05T02:39:14.943Z,75.42
2022-10-05T02:40:42.688Z,75.86
2022-10-05T02:42:16.075Z,75.06
2022-10-05T02:43:23.459Z,74.95
2022-10-05T02:44:51.009Z,75.75
2022-10-05T02:46:13.887Z,77.04
2022-10-05T02:47:21.806Z,77.57
2022-10-05T02:48:34.269Z,77.68
2022-10-05T02:49:38.828Z,77.73
2022-10-05T02:50:52.674Z,77.49
2022-10-05T02:52:00.016Z,77.42
2022-10-05T02:53:22.320Z,77.64
2022-10-05T02:54:42.606Z,78.30
2022-10-05T02:55:59.470Z,76.81
2022-10-05T02:57:19.388Z,76.84
2022-10-05T02:58:29.111Z,77.11
2022-10-05T03:00:08.652Z,78.08
2022-10-05T03:01:27.903Z,77.24
2022-10-05T03:02:39.698Z,77.28
2022-10-05T03:03:52.300Z,77.29
2022-10-05T03:05:29.259Z,77.72
2022-10-05T03:06:38.656Z,77.75
2022-10-05T03:07:53.468Z,77.92
2022-10-05T03:09:06.418Z,77.76
2022-10-05T03:10:17.338Z,77.91
2022-10-05T03:11:30.235Z,77.62
2022-10-05T03:12:50.090Z,76.93
2022-10-05T03:14:26.144Z,77.72
2022-10-05T03:16:03.366Z,77.42
2022-10-05T03:17:25.448Z,77.18
2022-10-05T03:18:54.036Z,77.41
2022-10-05T03:20:14.349Z,77.74
2022-10-05T03:21:36.413Z,77.67
2022-10-05T03:22:47.022Z,77.21
2022-10-05T03:24:25.890Z,78.01
2022-10-05T03:25:27.379Z,77.67
2022-10-05T03:26:35.280Z,77.68
2022-10-05T03:27:44.898Z,78.21
2022-10-05T03:29:08.666Z,77.86
2022-10-05T03:30:15.953Z,77.92
2022-10-05T03:31:46.398Z,76.79
2022-10-05T03:33:06.522Z,76.78
2022-10-05T03:34:26.360Z,76.66
2022-10-05T03:35:32.705Z,76.71
2022-10-05T03:36:48.769Z,77.25
2022-10-05T03:37:56.250Z,76.14
2022-10-05T03:39:17.953Z,76.45
2022-10-05T03:40:29.628Z,76.58
2022-10-05T03:41:45.933Z,76.26
2022-10-05T03:43:12.397Z,76.27
2022-10-05T03:44:30.410Z,76.23
2022-10-05T03:45:41.311Z,76.94
2022-10-05T03:46:51.516Z,77.29
2022-10-05T03:48:20.323Z,77.00
2022-10-05T03:49:28.092Z,76.98
2022-10-05T03:50:35.047Z,77.03
2022-10-05T03:51:45.414Z,77.68
2022-10-05T03:53:09.275Z,77.51
2022-10-05T03:54:32.426Z,76.89
2022-10-05T03:55:45.432Z,78.12
2022-10-05T03:56:55.769Z,77.98
2022-10-05T03:58:03.220Z,78.36
2022-10-05T03:59:23.002Z,76.89
2022-10-05T04:00:25.625Z,76.91
2022-10-05T04:01:39.025Z,77.12
2022-10-05T04:03:05.195Z,77.10
2022-10-05T04:04:13.677Z,76.38
2022-10-05T04:05:23.613Z,76.52
2022-10-05T04:06:29.972Z,76.85
2022-10-05T04:07:38.816Z,77.42
2022-10-05T04:08:49.378Z,76.83
2022-10-05T04:09:53.107Z,76.67
2022-10-05T04:10:57.905Z,76.72
2022-10-05T04:12:23.902Z,76.59
2022-10-05T04:13:46.114Z,76.16
2022-10-05T04:14:53.774Z,76.26
2022-10-05T04:16:15.865Z,75.57
2022-10-05T04:17:39.420Z,75.08
2022-10-05T04:18:59.166Z,74.59
2022-10-05T04:20:07.135Z,75.00
2022-10-05T04:21:23.642Z,74.71
2022-10-05T04:22:32.005Z,74.17
2022-10-05T04:23:42.980Z,74.74
2022-10-05T04:24:53.245Z,74.22
2022-10-05T04:26:02.358Z,73.75
2022-10-05T04:27:11.208Z,73.89
2022-10-05T04:28:48.806Z,74.41
2022-10-05T04:30:12.441Z,75.51
2022-10-05T04:31:24.063Z,76.75
2022-10-05T04:32:30.929Z,77.79
2022-10-05T04:33:33.391Z,78.20
2022-10-05T04:35:02.537Z,78.70
2022-10-05T04:36:22.069Z,79.84
2022-10-05T04:37:46.246Z,80.69
2022-10-05T04:38:59.560Z,80.63
2022-10-05T04:40:29.745Z,82.11
2022-10-05T04:41:48.498Z,82.45
2022-10-05T04:42:57.985Z,82.19
2022-10-05T04:44:08.962Z,82.32
2022-10-05T04:45:27.439Z,81.99
2022-10-05T04:46:55.729Z,82.41
2022-10-05T04:48:15.256Z,83.33
2022-10-05T04:49:50.935Z,84.09
2022-10-05T04:51:01.386Z,84.45
2022-10-05T04:52:16.584Z,84.87
2022-10-05T04:54:00.060Z,85.15
2022-10-05T04:55:39.096Z,85.22
2022-10-05T04:56:47.580Z,84.95
2022-10-05T04:58:00.646Z,84.87
2022-10-05T04:59:10.155Z,84.88
2022-10-05T05:00:25.535Z,85.09
2022-10-05T05:01:45.117Z,85.08
2022-10-05T05:02:58.747Z,85.20
2022-10-05T05:04:51.860Z,84.48
2022-10-05T05:06:18.525Z,84.54
2022-10-05T05:07:49.375Z,84.08
2022-10-05T05:09:25.303Z,84.29
2022-10-05T05:10:43.904Z,84.45
2022-10-05T05:12:03.874Z,85.27
2022-10-05T05:13:18.333Z,84.81
2022-10-05T05:14:49.478Z,85.04
2022-10-05T05:15:57.034Z,85.03
2022-10-05T05:16:58.555Z,85.53
2022-10-05T05:18:41.120Z,85.98
2022-10-05T05:19:52.353Z,85.91
2022-10-05T05:21:05.810Z,85.73
2022-10-05T05:22:20.799Z,85.47
2022-10-05T05:23:41.073Z,85.01
2022-10-05T05:25:30.313Z,84.67
2022-10-05T05:26:50.887Z,84.17
2022-10-05T05:28:18.147Z,84.36
2022-10-05T05:29:35.950Z,83.88
2022-10-05T05:30:52.900Z,83.27
2022-10-05T05:32:14.120Z,82.66
2022-10-05T05:33:23.318Z,81.81
2022-10-05T05:34:43.278Z,80.63
2022-10-05T05:37:01.830Z,79.68
2022-10-05T05:38:13.733Z,78.73
2022-10-05T05:39:36.789Z,78.60
2022-10-05T05:41:16.389Z,77.64
2022-10-05T05:42:53.069Z,76.85
2022-10-05T05:44:05.256Z,77.28
2022-10-05T05:45:42.994Z,76.30
2022-10-05T05:47:31.241Z,75.18
2022-10-05T05:48:43.074Z,75.59
2022-10-05T05:50:06.336Z,74.24
2022-10-05T05:51:14.724Z,74.67
2022-10-05T05:52:28.909Z,74.23
2022-10-05T05:53:38.093Z,73.05
2022-10-05T05:54:46.217Z,73.16
2022-10-05T05:55:53.112Z,71.82
2022-10-05T05:57:23.305Z,70.55
2022-10-05T05:58:31.675Z,69.73
2022-10-05T05:59:43.786Z,69.13
2022-10-05T06:00:52.142Z,69.06
2022-10-05T06:02:04.895Z,69.64
2022-10-05T06:03:09.556Z,69.18
2022-10-05T06:04:18.967Z,68.30
2022-10-05T06:05:32.647Z,68.15
2022-10-05T06:06:38.227Z,68.01
2022-10-05T06:07:40.394Z,67.64
2022-10-05T06:08:51.225Z,67.12
2022-10-05T06:10:04.221Z,68.26
2022-10-05T06:11:17.020Z,67.61
2022-10-05T06:12:23.608Z,67.95
2022-10-05T06:13:32.726Z,68.88
2022-10-05T06:14:46.972Z,68.09
2022-10-05T06:15:55.886Z,67.71
2022-10-05T06:17:24.122Z,66.85
2022-10-05T06:18:25.867Z,66.44
2022-10-05T06:19:29.285Z,66.57
2022-10-05T06:20:38.287Z,65.11
2022-10-05T06:21:58.107Z,64.32
2022-10-05T06:23:04.383Z,64.53
2022-10-05T06:24:16.679Z,63.43
2022-10-05T06:25:35.222Z,63.90
2022-10-05T06:26:36.721Z,63.21
2022-10-05T06:28:12.563Z,62.06
2022-10-05T06:29:20.582Z,62.20
2022-10-05T06:30:22.539Z,62.16
2022-10-05T06:31:30.496Z,61.65
2022-10-05T06:32:35.030Z,62.36
2022-10-05T06:33:43.960Z,62.48
2022-10-05T06:34:53.378Z,63.72
2022-10-05T06:36:06.955Z,63.74
2022-10-05T06:37:18.854Z,63.71
2022-10-05T06:38:44.718Z,62.45
2022-10-05T06:40:08.062Z,64.26
2022-10-05T06:41:36.155Z,64.28
2022-10-05T06:43:07.610Z,64.98
2022-10-05T06:44:33.792Z,65.32
2022-10-05T06:45:47.910Z,64.99
2022-10-05T06:47:37.244Z,65.10
2022-10-05T06:48:38.785Z,67.32
2022-10-05T06:49:56.323Z,67.88
2022-10-05T06:51:42.392Z,69.31
2022-10-05T06:53:08.680Z,68.69
2022-10-05T06:54:31.351Z,69.21
2022-10-05T06:55:51.125Z,67.23
2022-10-05T06:57:04.580Z,72.24
2022-10-05T06:58:36.649Z,66.33
2022-10-05T06:59:57.610Z,65.02
2022-10-05T07:01:10.962Z,66.24
2022-10-05T07:02:39.890Z,65.75
2022-10-05T07:03:52.065Z,65.16
2022-10-05T07:04:56.298Z,64.71
2022-10-05T07:06:06.265Z,64.84
2022-10-05T07:07:22.976Z,66.11
2022-10-05T07:08:49.266Z,64.85
2022-10-05T07:10:02.268Z,64.55
2022-10-05T07:11:23.074Z,63.26
2022-10-05T07:12:48.792Z,62.25
2022-10-05T07:13:59.246Z,62.76
2022-10-05T07:15:30.377Z,62.26
2022-10-05T07:16:59.083Z,61.37
2022-10-05T07:18:15.713Z,60.58
2022-10-05T07:19:29.263Z,60.50
2022-10-05T07:21:00.100Z,60.60
2022-10-05T07:22:37.181Z,61.01
2022-10-05T07:23:44.679Z,60.79
2022-10-05T07:25:11.160Z,60.11
2022-10-05T07:26:21.946Z,60.77
2022-10-05T07:27:25.651Z,61.85
2022-10-05T07:29:10.736Z,62.21
2022-10-05T07:30:14.957Z,61.92
2022-10-05T07:31:16.483Z,61.34
2022-10-05T07:33:00.314Z,61.18
2022-10-05T07:34:32.567Z,60.19
2022-10-05T07:36:07.957Z,59.64
2022-10-05T07:37:37.908Z,58.41
2022-10-05T07:38:52.493Z,58.35
2022-10-05T07:40:12.113Z,58.45
2022-10-05T07:41:43.573Z,58.35
2022-10-05T07:42:57.590Z,58.73
2022-10-05T07:44:16.088Z,59.27
2022-10-05T07:45:43.345Z,59.51
2022-10-05T07:47:22.334Z,57.56
2022-10-05T07:48:35.452Z,58.12
2022-10-05T07:49:51.673Z,57.52
2022-10-05T07:51:06.642Z,57.21
2022-10-05T07:52:17.174Z,57.66
2022-10-05T07:53:24.809Z,57.55
2022-10-05T07:54:29.702Z,56.92
2022-10-05T07:55:37.294Z,56.52
2022-10-05T07:56:44.952Z,56.20
2022-10-05T07:57:59.594Z,54.76
2022-10-05T07:59:12.336Z,55.74
2022-10-05T08:00:17.840Z,55.71
2022-10-05T08:01:26.875Z,55.66
2022-10-05T08:02:45.728Z,55.67
2022-10-05T08:03:47.196Z,54.88
2022-10-05T08:05:32.118Z,55.10
2022-10-05T08:07:11.336Z,55.27
2022-10-05T08:08:29.766Z,56.21
2022-10-05T08:09:50.518Z,56.47
2022-10-05T08:11:22.010Z,56.41
2022-10-05T08:12:40.146Z,55.37
2022-10-05T08:13:54.710Z,55.36
2022-10-05T08:15:03.284Z,56.05
2022-10-05T08:16:14.434Z,55.53
2022-10-05T08:17:32.816Z,56.49
2022-10-05T08:18:46.336Z,55.14
2022-10-05T08:19:55.956Z,55.65
2022-10-05T08:20:58.563Z,56.66
2022-10-05T08:22:14.050Z,55.36
2022-10-05T08:23:19.855Z,55.88
2022-10-05T08:24:51.610Z,55.83
2022-10-05T08:26:15.987Z,56.18
2022-10-05T08:27:23.528Z,57.46
2022-10-05T08:28:34.209Z,57.18
2022-10-05T08:30:03.013Z,56.39
2022-10-05T08:31:25.197Z,56.75
2022-10-05T08:32:45.333Z,56.63
2022-10-05T08:34:23.032Z,55.67
2022-10-05T08:35:35.468Z,54.83
2022-10-05T08:36:40.051Z,55.18
2022-10-05T08:37:44.154Z,56.11
2022-10-05T08:38:45.732Z,53.57
2022-10-05T08:40:21.508Z,53.85
2022-10-05T08:41:55.959Z,53.50
2022-10-05T08:43:35.596Z,55.18
2022-10-05T08:44:46.066Z,53.60
2022-10-05T08:45:47.661Z,52.72
2022-10-05T08:47:15.904Z,52.48
2022-10-05T08:48:36.132Z,52.74
2022-10-05T08:49:58.694Z,53.98
2022-10-05T08:51:12.853Z,54.15
2022-10-05T08:52:30.715Z,54.10
2022-10-05T08:53:51.063Z,54.09
2022-10-05T08:55:10.943Z,54.12
2022-10-05T08:56:29.474Z,52.92
2022-10-05T08:57:47.655Z,53.18
2022-10-05T08:59:24.526Z,54.74
2022-10-05T09:00:47.620Z,54.78
2022-10-05T09:02:16.351Z,52.59
2022-10-05T09:03:46.022Z,53.83
2022-10-05T09:05:09.219Z,53.03
2022-10-05T09:06:29.456Z,53.67
2022-10-05T09:07:45.348Z,53.50
2022-10-05T09:09:06.260Z,54.71
2022-10-05T09:10:32.708Z,54.79
2022-10-05T09:11:40.779Z,54.49
2022-10-05T09:13:11.537Z,54.13
2022-10-05T09:15:01.340Z,54.75
2022-10-05T09:16:17.923Z,54.48
2022-10-05T09:17:55.862Z,53.91
2022-10-05T09:19:22.849Z,54.90
2022-10-05T09:20:50.856Z,53.68
2022-10-05T09:22:05.087Z,54.11
2022-10-05T09:23:29.661Z,53.53
2022-10-05T09:24:48.769Z,53.71
2022-10-05T09:26:04.121Z,54.38
2022-10-05T09:27:17.480Z,53.77
2022-10-05T09:28:28.049Z,54.85
2022-10-05T09:29:29.566Z,54.36
2022-10-05T09:31:07.959Z,54.31
2022-10-05T09:32:53.338Z,54.49
2022-10-05T09:34:26.197Z,53.62
2022-10-05T09:35:36.936Z,55.12
2022-10-05T09:37:26.459Z,53.62
2022-10-05T09:38:52.263Z,52.79
2022-10-05T09:40:32.892Z,52.82
2022-10-05T09:42:11.618Z,52.97
2022-10-05T09:43:19.145Z,53.02
2022-10-05T09:44:36.377Z,54.47
2022-10-05T09:45:53.893Z,54.01
2022-10-05T09:47:01.408Z,53.94
2022-10-05T09:49:04.448Z,53.24
2022-10-05T09:50:20.754Z,51.97
2022-10-05T09:51:58.837Z,53.03
2022-10-05T09:53:24.802Z,51.98
2022-10-05T09:54:58.532Z,52.54
2022-10-05T09:56:30.504Z,53.13
2022-10-05T09:57:49.381Z,52.93
2022-10-05T09:59:15.497Z,53.33
2022-10-05T10:00:24.179Z,53.30
2022-10-05T10:01:53.580Z,52.73
2022-10-05T10:03:05.303Z,52.50
2022-10-05T10:04:45.182Z,52.28
2022-10-05T10:05:52.326Z,53.09
2022-10-05T10:07:10.763Z,52.40
2022-10-05T10:08:27.283Z,53.06
2022-10-05T10:09:46.204Z,52.95
2022-10-05T10:11:09.122Z,52.48
2022-10-05T10:12:28.800Z,51.47
2022-10-05T10:13:45.152Z,51.71
2022-10-05T10:15:07.646Z,52.73
2022-10-05T10:16:49.646Z,52.42
2022-10-05T10:18:28.723Z,52.17
2022-10-05T10:19:52.261Z,52.75
2022-10-05T10:21:16.852Z,51.44
2022-10-05T10:22:30.358Z,50.66
2022-10-05T10:24:00.187Z,50.79
2022-10-05T10:25:34.745Z,51.15
2022-10-05T10:26:54.993Z,52.14
2022-10-05T10:28:16.282Z,51.42
2022-10-05T10:29:30.159Z,50.91
2022-10-05T10:31:02.164Z,51.23
2022-10-05T10:32:12.795Z,50.57
2022-10-05T10:33:59.428Z,50.45
2022-10-05T10:35:06.902Z,50.75
2022-10-05T10:36:32.629Z,50.89
2022-10-05T10:37:39.584Z,51.00
2022-10-05T10:38:45.139Z,50.83
2022-10-05T10:40:14.517Z,50.79
2022-10-05T10:41:39.188Z,50.36
2022-10-05T10:43:29.509Z,52.24
2022-10-05T10:44:56.439Z,50.27
2022-10-05T10:46:25.320Z,50.30
2022-10-05T10:47:48.064Z,50.63
2022-10-05T10:48:57.451Z,49.95
2022-10-05T10:50:24.277Z,49.67
2022-10-05T10:51:56.640Z,48.99
2022-10-05T10:53:16.989Z,49.06
2022-10-05T10:54:49.837Z,50.14
2022-10-05T10:56:33.376Z,48.93
2022-10-05T10:57:56.738Z,50.60
2022-10-05T10:59:35.677Z,49.02
2022-10-05T11:00:40.268Z,49.07
2022-10-05T11:01:56.776Z,48.42
2022-10-05T11:03:08.525Z,48.49
2022-10-05T11:04:52.866Z,48.18
2022-10-05T11:06:17.293Z,48.50
2022-10-05T11:07:40.747Z,48.38
2022-10-05T11:08:42.230Z,48.71
2022-10-05T11:10:00.827Z,48.36
2022-10-05T11:11:32.957Z,47.83
2022-10-05T11:13:01.682Z,47.49
2022-10-05T11:14:12.127Z,47.34
2022-10-05T11:15:13.765Z,48.03
2022-10-05T11:16:39.439Z,48.22
2022-10-05T11:17:51.140Z,48.34
2022-10-05T11:19:17.427Z,48.42
2022-10-05T11:20:49.823Z,50.04
2022-10-05T11:22:10.823Z,47.80
2022-10-05T11:23:49.713Z,47.76
2022-10-05T11:25:17.576Z,46.32
2022-10-05T11:26:39.989Z,46.06
2022-10-05T11:28:08.292Z,46.39
2022-10-05T11:29:24.112Z,45.84
2022-10-05T11:30:50.486Z,45.85
2022-10-05T11:32:01.631Z,45.99
2022-10-05T11:33:24.946Z,46.88
2022-10-05T11:34:51.641Z,44.96
2022-10-05T11:36:11.344Z,44.49
2022-10-05T11:37:31.867Z,44.68
2022-10-05T11:38:33.380Z,43.27
2022-10-05T11:39:40.759Z,42.49
2022-10-05T11:41:04.236Z,44.73
2022-10-05T11:42:11.721Z,44.03
2022-10-05T11:43:45.140Z,44.49
2022-10-05T11:45:24.740Z,43.92
2022-10-05T11:46:55.642Z,43.91
2022-10-05T11:48:09.430Z,43.75
2022-10-05T11:49:14.023Z,43.39
2022-10-05T11:50:39.624Z,43.56
2022-10-05T11:51:54.811Z,44.07
2022-10-05T11:53:29.568Z,44.23
2022-10-05T11:54:58.618Z,43.85
2022-10-05T11:56:01.733Z,44.90
2022-10-05T11:57:13.605Z,44.37
2022-10-05T11:58:18.056Z,44.77
2022-10-05T11:59:43.265Z,44.15
2022-10-05T12:00:50.154Z,43.99
2022-10-05T12:02:13.437Z,44.01
2022-10-05T12:03:17.592Z,43.18
2022-10-05T12:04:45.469Z,42.52
2022-10-05T12:06:05.289Z,43.28
2022-10-05T12:07:18.943Z,42.84
2022-10-05T12:08:25.409Z,43.58
2022-10-05T12:09:35.339Z,43.73
2022-10-05T12:10:52.582Z,44.10
2022-10-05T12:12:22.078Z,43.61
2022-10-05T12:13:51.239Z,43.35
2022-10-05T12:15:01.829Z,42.87
2022-10-05T12:16:18.202Z,42.89
2022-10-05T12:17:26.182Z,42.94
2022-10-05T12:18:31.136Z,42.69
2022-10-05T12:19:42.561Z,43.11
2022-10-05T12:20:56.725Z,42.70
2022-10-05T12:22:21.919Z,42.25
2022-10-05T12:23:48.444Z,41.56
2022-10-05T12:25:28.624Z,42.70
2022-10-05T12:27:00.935Z,42.48
2022-10-05T12:28:12.369Z,43.00
2022-10-05T12:29:32.221Z,42.50
2022-10-05T12:31:24.723Z,42.71
2022-10-05T12:32:35.275Z,43.44
2022-10-05T12:35:53.699Z,42.52
2022-10-05T12:37:04.728Z,42.89
2022-10-05T12:38:24.380Z,42.23
2022-10-05T12:39:41.985Z,42.26
2022-10-05T12:41:05.429Z,42.77
2022-10-05T12:42:28.285Z,43.10
2022-10-05T12:43:38.524Z,41.57
2022-10-05T12:44:52.117Z,41.32
2022-10-05T12:46:13.185Z,41.87
2022-10-05T12:47:26.934Z,41.26
2022-10-05T12:48:37.654Z,41.11
2022-10-05T12:50:11.439Z,40.87
2022-10-05T12:53:00.110Z,43.40
2022-10-05T12:54:09.313Z,41.28
2022-10-05T12:55:46.037Z,41.84
2022-10-05T12:56:59.169Z,41.55
2022-10-05T13:01:41.727Z,41.37
2022-10-05T13:02:48.335Z,41.30
2022-10-05T13:04:16.004Z,41.13
2022-10-05T13:05:25.350Z,41.86
2022-10-05T13:06:56.060Z,42.33
2022-10-05T13:08:08.007Z,41.95
2022-10-05T13:09:33.940Z,41.98
2022-10-05T13:10:42.595Z,42.25
2022-10-05T13:11:55.033Z,41.74
2022-10-05T13:13:17.567Z,41.87
2022-10-05T13:14:55.457Z,41.63
2022-10-05T13:16:03.185Z,42.51
2022-10-05T13:17:14.897Z,41.75
2022-10-05T13:21:08.130Z,41.64
2022-10-05T13:22:41.101Z,41.50
2022-10-05T13:24:24.106Z,40.79
2022-10-05T13:25:36.716Z,41.47
2022-10-05T13:26:47.310Z,41.18
2022-10-05T13:28:06.936Z,41.19
2022-10-05T13:29:30.278Z,41.05
2022-10-05T13:30:32.353Z,41.03
2022-10-05T13:31:44.693Z,41.65
2022-10-05T13:34:46.031Z,41.24
2022-10-05T13:36:04.970Z,41.50
2022-10-05T13:37:26.986Z,40.26
2022-10-05T13:38:38.928Z,41.46
2022-10-05T13:47:04.690Z,40.42
2022-10-05T13:48:14.020Z,40.41
2022-10-05T13:49:26.513Z,40.40
2022-10-05T13:50:33.447Z,40.38
2022-10-05T13:51:51.689Z,40.12
2022-10-05T13:53:19.666Z,40.23
2022-10-05T13:54:45.813Z,40.82
2022-10-05T13:55:59.934Z,40.99
2022-10-05T13:57:21.213Z,41.09
2022-10-05T13:58:53.285Z,41.09
2022-10-05T14:00:02.504Z,41.30
2022-10-05T14:01:15.961Z,41.64
2022-10-05T14:02:22.916Z,41.04
2022-10-05T14:03:32.256Z,40.80
2022-10-05T14:04:50.865Z,40.94
2022-10-05T14:05:58.130Z,40.92
2022-10-05T14:07:21.412Z,40.87
2022-10-05T14:08:32.251Z,40.61
2022-10-05T14:09:35.061Z,40.05
2022-10-05T14:10:42.927Z,39.92
2022-10-05T14:12:14.786Z,40.39
2022-10-05T14:13:16.243Z,40.76
2022-10-05T14:14:30.433Z,40.47
2022-10-05T14:15:41.972Z,40.60
2022-10-05T14:16:50.988Z,39.91
2022-10-05T14:17:52.772Z,40.34
2022-10-05T14:19:06.500Z,40.08
2022-10-05T14:20:27.694Z,39.94
2022-10-05T14:21:30.754Z,40.49
2022-10-05T14:22:41.619Z,40.17
2022-10-05T14:23:43.256Z,40.36
2022-10-05T14:25:13.688Z,40.26
2022-10-05T14:26:33.250Z,39.63
2022-10-05T14:27:47.971Z,39.91
2022-10-05T14:29:15.263Z,40.01
2022-10-05T14:30:29.124Z,40.57
2022-10-05T14:31:36.028Z,39.75
2022-10-05T14:32:51.409Z,40.64
2022-10-05T14:33:52.957Z,40.94
2022-10-05T14:34:57.171Z,40.85
2022-10-05T14:35:59.762Z,40.91
2022-10-05T14:37:20.939Z,40.75
2022-10-05T14:38:32.664Z,39.73
2022-10-05T14:39:35.447Z,39.40
2022-10-05T14:40:38.330Z,39.91
2022-10-05T14:41:49.023Z,39.80
2022-10-05T14:42:51.438Z,40.22
2022-10-05T14:45:34.245Z,39.94
2022-10-05T14:46:37.130Z,40.06
2022-10-05T14:47:51.964Z,39.64
2022-10-05T14:49:06.551Z,39.67
2022-10-05T14:50:21.302Z,40.22
2022-10-05T14:53:26.253Z,39.79
2022-10-05T14:54:27.769Z,39.84
2022-10-05T14:55:37.326Z,40.47
2022-10-05T14:57:06.710Z,41.14
2022-10-05T14:58:23.737Z,40.41
2022-10-05T14:59:49.182Z,40.31
2022-10-05T15:00:59.728Z,39.78
2022-10-05T15:02:23.366Z,39.99
2022-10-05T15:03:36.776Z,40.20
2022-10-05T15:06:34.674Z,40.86
2022-10-05T15:07:43.879Z,40.60
2022-10-05T15:09:17.272Z,40.10
2022-10-05T15:10:42.223Z,40.47
2022-10-05T15:15:15.265Z,40.93
2022-10-05T15:16:34.339Z,41.04
2022-10-05T15:17:52.524Z,40.64
2022-10-05T15:19:16.726Z,40.64
2022-10-05T15:20:26.380Z,41.10
2022-10-05T15:21:57.262Z,40.88
2022-10-05T15:23:11.271Z,40.94
2022-10-05T15:24:17.477Z,41.24
2022-10-05T15:28:15.510Z,41.31
2022-10-05T15:29:29.583Z,41.33
2022-10-05T15:30:36.733Z,41.91
2022-10-05T15:31:46.663Z,41.21
2022-10-05T15:33:11.054Z,41.35
2022-10-05T15:36:06.400Z,41.54
2022-10-05T15:37:10.787Z,41.79
2022-10-05T15:38:29.325Z,41.68
2022-10-05T15:39:51.365Z,42.08
2022-10-05T15:40:59.149Z,42.45
2022-10-05T15:42:25.324Z,41.77
2022-10-05T15:43:42.404Z,42.21
2022-10-05T15:45:13.901Z,42.28
2022-10-05T15:46:35.582Z,42.11
2022-10-05T15:47:59.412Z,42.40
2022-10-05T15:49:19.976Z,42.51
2022-10-05T15:50:29.716Z,42.26
2022-10-05T15:51:50.777Z,42.38
2022-10-05T15:53:13.947Z,41.75
2022-10-05T15:54:43.340Z,41.94
2022-10-05T15:55:52.396Z,42.50
2022-10-05T15:57:07.299Z,42.68
2022-10-05T15:58:38.736Z,42.60
2022-10-05T15:59:48.866Z,42.59
2022-10-05T16:01:16.125Z,42.67
2022-10-05T16:02:25.549Z,42.42
2022-10-05T16:03:45.762Z,42.99
2022-10-05T16:05:03.808Z,43.48
2022-10-05T16:06:35.698Z,42.87
2022-10-05T16:08:04.328Z,43.27
2022-10-05T16:09:26.913Z,43.56
2022-10-05T16:10:33.917Z,43.44
2022-10-05T16:11:44.008Z,43.82
2022-10-05T16:13:00.702Z,43.73
2022-10-05T16:14:15.431Z,43.78
2022-10-05T16:15:35.760Z,43.88
2022-10-05T16:17:09.827Z,43.81
2022-10-05T16:18:14.070Z,44.80
2022-10-05T16:19:30.008Z,44.77
2022-10-05T16:20:43.681Z,44.83
2022-10-05T16:22:04.541Z,45.76
2022-10-05T16:23:30.192Z,46.54
2022-10-05T16:24:59.513Z,46.23
2022-10-05T16:26:22.181Z,46.11
2022-10-05T16:27:32.813Z,46.60
2022-10-05T16:28:43.090Z,46.72
2022-10-05T16:30:03.698Z,46.94
2022-10-05T16:31:06.130Z,46.88
2022-10-05T16:32:15.904Z,46.92
2022-10-05T16:33:54.441Z,46.95
2022-10-05T16:35:39.480Z,47.54
2022-10-05T16:36:59.118Z,47.46
2022-10-05T16:38:09.987Z,47.61
2022-10-05T16:39:11.448Z,47.04
2022-10-05T16:40:34.818Z,46.99
2022-10-05T16:41:50.130Z,46.77
2022-10-05T16:43:03.705Z,46.60
2022-10-05T16:44:30.125Z,46.59
2022-10-05T16:46:02.377Z,47.77
2022-10-05T16:47:28.316Z,49.06
2022-10-05T16:49:13.899Z,49.13
2022-10-05T16:50:38.295Z,47.71
2022-10-05T16:52:00.299Z,48.95
2022-10-05T16:53:17.425Z,48.30
2022-10-05T16:54:27.389Z,48.39
2022-10-05T16:55:37.609Z,49.60
2022-10-05T16:56:44.212Z,49.91
2022-10-05T16:57:52.463Z,51.17
2022-10-05T16:59:25.001Z,52.27
2022-10-05T17:00:52.009Z,52.17
2022-10-05T17:02:27.449Z,52.17
2022-10-05T17:03:52.982Z,53.59
2022-10-05T17:05:16.386Z,55.31
2022-10-05T17:06:36.963Z,54.27
2022-10-05T17:08:01.634Z,54.22
2022-10-05T17:09:37.531Z,53.65
2022-10-05T17:10:54.922Z,54.47
2022-10-05T17:12:11.507Z,54.24
2022-10-05T17:13:22.222Z,54.28
2022-10-05T17:14:42.866Z,53.83